createdAt,value
2018-09-27T00:01:51.196Z,8.50
2018-09-27T00:06:46.142Z,8.40
2018-09-27T00:11:41.062Z,8.40
2018-09-27T00:16:35.969Z,8.60
2018-09-27T00:21:30.866Z,8.60
2018-09-27T00:26:25.761Z,8.60
2018-09-27T00:31:20.713Z,8.40
2018-09-27T00:36:15.638Z,8.30
2018-09-27T00:41:10.542Z,8.20
2018-09-27T00:46:05.509Z,8.20
2018-09-27T00:51:00.213Z,8.30
2018-09-27T00:55:55.613Z,8.30
2018-09-27T01:00:50.312Z,8.30
2018-09-27T01:05:45.147Z,8.20
2018-09-27T01:10:39.849Z,8.20
2018-09-27T01:15:34.581Z,8.10
2018-09-27T01:20:29.345Z,8.00
2018-09-27T01:25:24.079Z,7.90
2018-09-27T01:30:19.557Z,7.90
2018-09-27T01:35:14.272Z,8.00
2018-09-27T01:40:09.034Z,8.00
2018-09-27T01:45:03.791Z,8.10
2018-09-27T01:49:58.507Z,8.00
2018-09-27T01:54:53.250Z,8.00
2018-09-27T01:59:47.965Z,8.00
2018-09-27T02:04:42.677Z,8.00
2018-09-27T02:09:37.388Z,8.00
2018-09-27T02:14:32.096Z,8.00
2018-09-27T02:19:26.815Z,8.20
2018-09-27T02:24:21.582Z,8.10
2018-09-27T02:29:16.313Z,8.20
2018-09-27T02:34:11.023Z,8.30
2018-09-27T02:39:10.004Z,8.50
2018-09-27T02:44:04.782Z,8.50
2018-09-27T02:48:59.493Z,8.50
2018-09-27T02:53:54.222Z,8.60
2018-09-27T02:58:48.935Z,8.70
2018-09-27T03:03:43.705Z,8.80
2018-09-27T03:08:38.466Z,8.80
2018-09-27T03:13:33.229Z,8.90
2018-09-27T03:18:27.931Z,9.00
2018-09-27T03:23:22.682Z,9.10
2018-09-27T03:28:17.397Z,9.20
2018-09-27T03:33:12.180Z,9.20
2018-09-27T03:38:06.925Z,9.20
2018-09-27T03:43:01.637Z,9.20
2018-09-27T03:47:56.364Z,9.20
2018-09-27T03:52:51.084Z,9.30
2018-09-27T03:57:45.780Z,9.30
2018-09-27T04:02:40.551Z,9.40
2018-09-27T04:07:35.293Z,9.50
2018-09-27T04:12:29.992Z,9.50
2018-09-27T04:17:24.733Z,9.60
2018-09-27T04:22:19.571Z,9.60
2018-09-27T04:27:14.296Z,9.60
2018-09-27T04:32:09.029Z,9.70
2018-09-27T04:37:03.749Z,9.70
2018-09-27T04:41:58.471Z,9.70
2018-09-27T04:46:53.203Z,9.70
2018-09-27T04:51:47.984Z,9.70
2018-09-27T04:56:42.679Z,9.70
2018-09-27T05:01:37.429Z,9.60
2018-09-27T05:06:32.312Z,9.60
2018-09-27T05:11:26.981Z,9.60
2018-09-27T05:16:21.742Z,9.60
2018-09-27T05:21:16.473Z,9.50
2018-09-27T05:26:11.221Z,9.60
2018-09-27T05:31:06.009Z,9.60
2018-09-27T05:36:00.726Z,9.60
2018-09-27T05:40:55.477Z,9.80
2018-09-27T05:45:50.260Z,9.70
2018-09-27T05:50:44.990Z,9.70
2018-09-27T05:55:39.756Z,9.80
2018-09-27T06:00:34.670Z,9.80
2018-09-27T06:05:29.445Z,9.80
2018-09-27T06:10:24.194Z,9.70
2018-09-27T06:15:18.980Z,9.70
2018-09-27T06:20:13.720Z,9.80
2018-09-27T06:25:08.508Z,9.80
2018-09-27T06:30:03.370Z,10.00
2018-09-27T06:34:58.127Z,9.90
2018-09-27T06:39:52.846Z,9.90
2018-09-27T06:44:47.616Z,10.10
2018-09-27T06:49:42.361Z,10.10
2018-09-27T06:54:37.113Z,10.20
2018-09-27T06:59:31.868Z,10.30
2018-09-27T07:04:26.632Z,10.40
2018-09-27T07:09:21.429Z,10.50
2018-09-27T07:14:16.151Z,10.60
2018-09-27T07:19:11.082Z,10.60
2018-09-27T07:24:05.822Z,10.50
2018-09-27T07:29:01.644Z,10.60
2018-09-27T07:33:56.392Z,10.70
2018-09-27T07:38:51.173Z,10.70
2018-09-27T07:43:45.942Z,10.70
2018-09-27T07:48:40.741Z,10.90
2018-09-27T07:53:36.437Z,11.00
2018-09-27T07:58:31.171Z,10.90
2018-09-27T08:03:25.892Z,11.00
2018-09-27T08:08:20.646Z,11.00
2018-09-27T08:13:15.438Z,11.20
2018-09-27T08:18:10.208Z,11.20
2018-09-27T08:23:04.962Z,11.30
2018-09-27T08:27:59.714Z,11.30
2018-09-27T08:32:54.441Z,11.50
2018-09-27T08:37:49.229Z,11.50
2018-09-27T08:42:43.971Z,11.50
2018-09-27T08:47:38.785Z,11.70
2018-09-27T08:52:33.606Z,11.90
2018-09-27T08:57:28.436Z,11.90
2018-09-27T09:02:23.236Z,11.90
2018-09-27T09:07:18.066Z,12.10
2018-09-27T09:12:12.937Z,12.10
2018-09-27T09:17:07.734Z,12.40
2018-09-27T09:22:02.514Z,13.10
2018-09-27T09:26:57.328Z,13.90
2018-09-27T09:31:53.042Z,13.90
2018-09-27T09:36:47.825Z,13.60
2018-09-27T09:41:42.621Z,13.60
2018-09-27T09:46:37.520Z,13.80
2018-09-27T09:51:33.306Z,13.50
2018-09-27T09:56:28.251Z,13.50
2018-09-27T10:01:23.062Z,13.80
2018-09-27T10:06:17.861Z,14.10
2018-09-27T10:11:12.676Z,14.50
2018-09-27T10:16:07.484Z,14.80
2018-09-27T10:21:02.346Z,15.00
2018-09-27T10:25:57.141Z,15.10
2018-09-27T10:30:51.955Z,15.20
2018-09-27T10:35:46.967Z,15.20
2018-09-27T10:40:41.756Z,15.50
2018-09-27T10:45:36.662Z,15.70
2018-09-27T10:50:31.464Z,15.80
2018-09-27T10:55:26.283Z,15.90
2018-09-27T11:00:42.390Z,16.10
2018-09-27T11:05:53.774Z,16.10
2018-09-27T11:11:11.854Z,16.20
2018-09-27T11:26:51.450Z,16.20
2018-09-27T11:31:51.333Z,16.60
2018-09-27T11:36:46.149Z,16.70
2018-09-27T11:41:41.031Z,16.80
2018-09-27T11:46:35.794Z,16.80
2018-09-27T11:51:30.590Z,17.00
2018-09-27T11:56:25.451Z,17.10
2018-09-27T12:01:20.315Z,17.30
2018-09-27T12:06:15.134Z,17.40
2018-09-27T12:11:10.027Z,17.70
2018-09-27T14:36:27.620Z,18.50
2018-09-27T14:41:28.010Z,18.40
2018-09-27T15:10:13.183Z,18.50
2018-09-27T15:15:08.385Z,18.60
2018-09-27T15:20:03.430Z,18.60
2018-09-27T15:24:58.218Z,18.60
2018-09-27T15:29:53.051Z,18.70
2018-09-27T15:34:47.909Z,18.70
2018-09-27T15:39:42.707Z,18.70
2018-09-27T15:44:37.643Z,18.60
2018-09-27T15:49:32.525Z,18.60
2018-09-27T15:54:27.830Z,18.50
2018-09-27T15:59:22.698Z,18.40
2018-09-27T16:42:30.110Z,16.70
2018-09-27T17:29:54.054Z,15.10
2018-09-27T17:34:49.011Z,15.00
2018-09-27T17:39:43.868Z,14.90
2018-09-27T17:45:12.567Z,14.80
2018-09-27T18:01:27.355Z,14.60
2018-09-27T18:11:57.474Z,14.10
2018-09-27T18:27:56.835Z,13.90
2018-09-27T18:32:51.637Z,13.80
2018-09-27T18:37:46.539Z,13.60
2018-09-27T18:42:41.403Z,13.50
2018-09-27T18:47:36.266Z,13.40
2018-09-27T18:52:32.030Z,13.30
2018-09-27T18:57:26.947Z,13.30
2018-09-27T19:02:21.853Z,13.30
2018-09-27T19:07:16.733Z,13.20
2018-09-27T19:12:11.671Z,13.10
2018-09-27T19:17:06.858Z,13.10
2018-09-27T19:22:01.543Z,12.90
2018-09-27T19:26:56.397Z,12.70
2018-09-27T19:31:51.257Z,12.80
2018-09-27T19:36:46.182Z,12.70
2018-09-27T19:41:41.401Z,12.60
2018-09-27T19:46:36.348Z,12.50
2018-09-27T19:51:31.162Z,12.50
2018-09-27T19:56:26.021Z,12.50
2018-09-27T20:01:20.905Z,12.30
2018-09-27T20:06:15.761Z,12.10
2018-09-27T20:11:10.564Z,12.10
2018-09-27T20:16:05.495Z,12.10
2018-09-27T20:21:00.423Z,12.00
2018-09-27T20:25:55.277Z,12.00
2018-09-27T20:30:50.206Z,12.10
2018-09-27T20:35:45.082Z,12.10
2018-09-27T20:40:39.974Z,11.90
2018-09-27T20:45:34.965Z,11.80
2018-09-27T20:50:29.790Z,11.70
2018-09-27T20:55:24.619Z,11.80
2018-09-27T21:00:19.489Z,11.70
2018-09-27T21:05:14.318Z,11.70
2018-09-27T21:10:09.238Z,11.40
2018-09-27T21:15:04.109Z,11.50
2018-09-27T21:19:58.917Z,11.40
2018-09-27T21:24:53.775Z,11.40
2018-09-27T21:29:49.219Z,11.30
2018-09-27T21:34:44.023Z,11.10
2018-09-27T21:39:38.822Z,11.10
2018-09-27T21:44:33.767Z,11.20
2018-09-27T21:49:28.587Z,11.10
2018-09-27T21:54:23.570Z,11.20
2018-09-27T21:59:18.474Z,11.20
2018-09-27T22:04:13.331Z,11.10
2018-09-27T22:09:10.769Z,11.10
2018-09-27T22:14:05.679Z,11.10
2018-09-27T22:19:00.578Z,11.00
2018-09-27T22:23:56.030Z,10.90
2018-09-27T22:28:51.884Z,10.80
2018-09-27T22:33:47.787Z,10.80
2018-09-27T22:38:42.655Z,10.70
2018-09-27T22:43:37.477Z,10.80
2018-09-27T22:48:32.275Z,10.80
2018-09-27T22:53:27.031Z,10.60
2018-09-27T22:58:21.889Z,10.50
2018-09-27T23:03:16.921Z,10.40
2018-09-27T23:08:12.209Z,10.30
2018-09-27T23:13:06.982Z,10.30
2018-09-27T23:18:01.735Z,10.30
2018-09-27T23:22:56.569Z,10.40
2018-09-27T23:27:51.401Z,10.30
2018-09-27T23:32:46.165Z,10.40
2018-09-27T23:37:41.010Z,10.40
2018-09-27T23:42:36.335Z,10.40
2018-09-27T23:47:31.280Z,10.30
2018-09-27T23:52:26.185Z,10.30
2018-09-27T23:57:21.080Z,10.10
